createdAt,value
2022-12-04T00:01:39.765Z,3.40
2022-12-04T00:04:06.809Z,6.80
2022-12-04T00:06:33.973Z,7.13
2022-12-04T00:09:00.347Z,6.68
2022-12-04T00:11:27.853Z,5.18
2022-12-04T00:13:54.961Z,7.60
2022-12-04T00:16:22.620Z,5.75
2022-12-04T00:18:49.061Z,6.95
2022-12-04T00:21:16.026Z,6.80
2022-12-04T00:23:42.835Z,6.88
2022-12-04T00:26:13.429Z,6.88
2022-12-04T00:28:39.810Z,4.65
2022-12-04T00:31:07.206Z,5.32
2022-12-04T00:33:34.048Z,4.15
2022-12-04T00:36:01.179Z,7.30
2022-12-04T00:38:27.595Z,6.35
2022-12-04T00:40:54.260Z,6.18
2022-12-04T00:43:21.245Z,5.57
2022-12-04T00:45:47.656Z,4.07
2022-12-04T00:48:14.120Z,5.30
2022-12-04T00:50:40.529Z,4.32
2022-12-04T00:53:07.298Z,4.90
2022-12-04T00:55:33.662Z,5.38
2022-12-04T00:58:00.307Z,3.92
2022-12-04T01:00:26.947Z,4.88
2022-12-04T01:02:53.285Z,6.60
2022-12-04T01:05:19.792Z,6.30
2022-12-04T01:07:46.237Z,5.63
2022-12-04T01:10:12.687Z,7.57
2022-12-04T01:12:39.084Z,5.28
2022-12-04T01:15:05.935Z,4.03
2022-12-04T01:17:32.277Z,4.32
2022-12-04T01:19:58.678Z,3.67
2022-12-04T01:22:25.160Z,4.43
2022-12-04T01:24:54.970Z,5.55
2022-12-04T01:27:21.244Z,3.08
2022-12-04T01:29:47.643Z,6.47
2022-12-04T01:32:14.026Z,5.97
2022-12-04T01:34:40.449Z,5.03
2022-12-04T01:37:06.762Z,4.63
2022-12-04T01:39:35.473Z,4.32
2022-12-04T01:42:01.882Z,3.95
2022-12-04T01:44:29.532Z,5.35
2022-12-04T01:46:57.213Z,7.85
2022-12-04T01:49:23.535Z,6.10
2022-12-04T01:51:51.662Z,5.50
2022-12-04T01:54:21.809Z,5.55
2022-12-04T01:56:51.413Z,5.20
2022-12-04T01:59:19.366Z,4.90
2022-12-04T02:01:52.301Z,4.65
2022-12-04T02:04:19.086Z,3.95
2022-12-04T02:06:45.524Z,3.50
2022-12-04T02:09:11.961Z,3.13
2022-12-04T02:11:41.959Z,3.97
2022-12-04T02:14:08.288Z,4.53
2022-12-04T02:16:43.398Z,4.80
2022-12-04T02:19:25.027Z,5.57
2022-12-04T02:21:52.871Z,4.10
2022-12-04T02:24:35.077Z,3.90
2022-12-04T02:29:39.572Z,3.22
2022-12-04T02:32:12.647Z,2.97
2022-12-04T02:34:44.675Z,3.17
2022-12-04T02:39:37.172Z,3.97
2022-12-04T02:42:08.040Z,2.97
2022-12-04T02:44:38.033Z,3.30
2022-12-04T02:47:06.254Z,2.90
2022-12-04T02:49:35.124Z,3.50
2022-12-04T02:52:02.584Z,3.38
2022-12-04T02:54:32.653Z,5.63
2022-12-04T02:56:59.741Z,4.32
2022-12-04T02:59:31.850Z,3.55
2022-12-04T03:02:01.261Z,3.45
2022-12-04T03:04:30.627Z,3.15
2022-12-04T03:06:59.552Z,4.80
2022-12-04T03:09:46.794Z,5.38
2022-12-04T03:12:25.701Z,5.07
2022-12-04T03:14:55.441Z,5.25
2022-12-04T03:17:25.472Z,5.57
2022-12-04T03:19:55.223Z,5.15
2022-12-04T03:22:22.234Z,4.05
2022-12-04T03:24:51.243Z,4.07
2022-12-04T03:27:23.578Z,3.60
2022-12-04T03:29:49.976Z,4.50
2022-12-04T03:32:20.805Z,3.78
2022-12-04T03:35:02.676Z,3.15
2022-12-04T03:37:58.245Z,5.28
2022-12-04T03:40:51.060Z,4.85
2022-12-04T03:43:22.275Z,5.75
2022-12-04T03:45:52.757Z,5.38
2022-12-04T03:48:23.435Z,4.70
2022-12-04T03:50:59.273Z,5.53
2022-12-04T03:53:44.466Z,6.80
2022-12-04T03:56:15.395Z,4.30
2022-12-04T03:58:44.650Z,5.25
2022-12-04T04:01:11.953Z,7.25
2022-12-04T04:03:44.900Z,5.45
2022-12-04T04:06:16.270Z,4.75
2022-12-04T04:08:45.746Z,4.20
2022-12-04T04:11:20.319Z,3.60
2022-12-04T04:14:09.726Z,5.25
2022-12-04T04:16:56.860Z,4.35
2022-12-04T04:19:43.654Z,5.47
2022-12-04T04:22:29.306Z,5.38
2022-12-04T04:24:58.590Z,6.10
2022-12-04T04:27:24.899Z,4.93
2022-12-04T04:29:52.816Z,4.25
2022-12-04T04:32:30.416Z,5.28
2022-12-04T04:35:20.051Z,5.40
2022-12-04T04:37:46.512Z,4.43
2022-12-04T04:40:16.705Z,4.60
2022-12-04T04:42:43.016Z,4.30
2022-12-04T04:45:30.693Z,3.88
2022-12-04T04:48:00.155Z,5.35
2022-12-04T04:50:26.704Z,5.10
2022-12-04T04:52:56.531Z,4.05
2022-12-04T04:55:23.589Z,3.45
2022-12-04T04:57:50.065Z,3.72
2022-12-04T05:00:18.907Z,5.43
2022-12-04T05:02:45.292Z,5.40
2022-12-04T05:05:12.691Z,7.25
2022-12-04T05:07:39.198Z,5.13
2022-12-04T05:10:05.911Z,4.28
2022-12-04T05:12:32.191Z,4.40
2022-12-04T05:14:58.584Z,4.32
2022-12-04T05:17:24.979Z,5.10
2022-12-04T05:19:54.470Z,6.70
2022-12-04T05:22:22.832Z,6.60
2022-12-04T05:24:49.278Z,5.05
2022-12-04T05:27:15.599Z,4.85
2022-12-04T05:29:42.056Z,5.50
2022-12-04T05:32:08.480Z,3.90
2022-12-04T05:34:34.921Z,3.90
2022-12-04T05:37:01.460Z,4.65
2022-12-04T05:39:27.746Z,7.18
2022-12-04T05:41:54.070Z,5.88
2022-12-04T05:44:20.433Z,5.65
2022-12-04T05:46:46.851Z,4.85
2022-12-04T05:49:13.301Z,5.05
2022-12-04T05:51:39.615Z,4.95
2022-12-04T05:54:05.907Z,4.32
2022-12-04T05:56:32.228Z,4.43
2022-12-04T05:58:58.611Z,5.38
2022-12-04T06:01:25.057Z,6.07
2022-12-04T06:03:51.673Z,7.30
2022-12-04T06:06:22.090Z,7.05
2022-12-04T06:08:49.883Z,7.55
2022-12-04T06:11:17.701Z,6.88
2022-12-04T06:13:44.832Z,7.20
2022-12-04T06:16:14.706Z,5.35
2022-12-04T06:18:41.519Z,6.90
2022-12-04T06:21:08.382Z,5.20
2022-12-04T06:23:34.682Z,5.78
2022-12-04T06:26:07.165Z,6.15
2022-12-04T06:28:34.451Z,6.25
2022-12-04T06:31:02.323Z,7.45
2022-12-04T06:33:28.897Z,6.00
2022-12-04T06:36:01.922Z,4.53
2022-12-04T06:38:28.660Z,4.22
2022-12-04T06:40:55.100Z,6.30
2022-12-04T06:43:21.720Z,5.43
2022-12-04T06:45:48.206Z,5.05
2022-12-04T06:48:14.543Z,6.63
2022-12-04T06:50:40.899Z,6.63
2022-12-04T06:53:08.613Z,5.57
2022-12-04T06:55:35.133Z,3.92
2022-12-04T06:58:01.520Z,4.50
2022-12-04T07:00:27.818Z,4.53
2022-12-04T07:02:54.206Z,4.13
2022-12-04T07:05:20.590Z,4.80
2022-12-04T07:07:48.064Z,4.82
2022-12-04T07:10:14.415Z,4.50
2022-12-04T07:12:40.817Z,5.13
2022-12-04T07:15:07.371Z,6.07
2022-12-04T07:17:33.701Z,5.95
2022-12-04T07:20:00.132Z,7.35
2022-12-04T07:22:26.603Z,5.65
2022-12-04T07:24:52.975Z,4.80
2022-12-04T07:27:19.301Z,3.33
2022-12-04T07:29:45.617Z,3.40
2022-12-04T07:32:12.141Z,4.63
2022-12-04T07:34:38.503Z,3.95
2022-12-04T07:37:04.776Z,2.65
2022-12-04T07:39:31.234Z,3.90
2022-12-04T07:41:57.535Z,2.85
2022-12-04T07:44:23.889Z,4.00
2022-12-04T07:46:50.377Z,4.70
2022-12-04T07:49:16.760Z,4.82
2022-12-04T07:51:43.054Z,4.35
2022-12-04T07:54:09.376Z,3.88
2022-12-04T07:56:35.810Z,3.92
2022-12-04T07:59:02.154Z,4.97
2022-12-04T08:01:28.812Z,4.40
2022-12-04T08:03:56.366Z,3.92
2022-12-04T08:06:23.629Z,6.55
2022-12-04T08:08:50.375Z,4.93
2022-12-04T08:11:18.103Z,3.30
2022-12-04T08:13:45.116Z,2.92
2022-12-04T08:16:12.031Z,2.90
2022-12-04T08:18:38.551Z,3.33
2022-12-04T08:21:04.890Z,4.40
2022-12-04T08:23:31.304Z,4.90
2022-12-04T08:25:58.555Z,3.30
2022-12-04T08:28:24.937Z,3.53
2022-12-04T08:30:51.521Z,4.55
2022-12-04T08:33:17.895Z,2.55
2022-12-04T08:35:44.221Z,3.05
2022-12-04T08:38:10.724Z,3.05
2022-12-04T08:40:37.042Z,2.30
2022-12-04T08:43:03.349Z,4.20
2022-12-04T08:45:29.672Z,2.75
2022-12-04T08:47:56.167Z,3.22
2022-12-04T08:50:22.569Z,4.10
2022-12-04T08:52:48.928Z,2.97
2022-12-04T08:55:15.433Z,3.38
2022-12-04T08:57:41.793Z,4.47
2022-12-04T09:00:08.521Z,4.10
2022-12-04T09:02:34.908Z,3.25
2022-12-04T09:05:01.208Z,5.43
2022-12-04T09:07:27.591Z,5.38
2022-12-04T09:09:54.067Z,3.55
2022-12-04T09:12:20.343Z,3.08
2022-12-04T09:14:46.686Z,2.72
2022-12-04T09:17:13.044Z,1.98
2022-12-04T09:19:39.808Z,1.85
2022-12-04T09:22:06.175Z,1.80
2022-12-04T09:24:32.619Z,2.10
2022-12-04T09:26:58.931Z,3.22
2022-12-04T09:29:26.141Z,2.80
2022-12-04T09:31:52.544Z,2.20
2022-12-04T09:34:18.875Z,2.20
2022-12-04T09:36:45.214Z,2.40
2022-12-04T09:39:11.627Z,1.70
2022-12-04T09:41:47.047Z,2.88
2022-12-04T09:44:19.693Z,3.33
2022-12-04T09:46:53.476Z,3.10
2022-12-04T09:49:25.510Z,2.97
2022-12-04T09:54:20.030Z,3.47
2022-12-04T09:56:51.027Z,3.20
2022-12-04T09:59:22.084Z,3.00
2022-12-04T10:01:51.849Z,2.80
2022-12-04T10:04:18.984Z,2.33
2022-12-04T10:07:07.515Z,4.63
2022-12-04T10:09:54.416Z,5.50
2022-12-04T10:12:30.300Z,4.68
2022-12-04T10:15:12.012Z,2.85
2022-12-04T10:17:52.439Z,2.30
2022-12-04T10:20:32.086Z,2.30
2022-12-04T10:22:58.378Z,2.47
2022-12-04T10:25:26.224Z,2.70
2022-12-04T10:28:11.623Z,3.70
2022-12-04T10:30:41.078Z,4.13
2022-12-04T10:33:22.719Z,3.33
2022-12-04T10:35:52.364Z,2.80
2022-12-04T10:38:34.112Z,6.00
2022-12-04T10:41:07.689Z,3.97
2022-12-04T10:43:41.026Z,3.53
2022-12-04T10:46:10.747Z,3.00
2022-12-04T10:48:38.665Z,3.13
2022-12-04T10:51:05.229Z,2.47
2022-12-04T10:53:33.352Z,2.88
2022-12-04T10:56:09.619Z,3.95
2022-12-04T10:58:35.991Z,4.63
2022-12-04T11:01:04.959Z,4.18
2022-12-04T11:03:31.644Z,3.97
2022-12-04T11:06:16.448Z,3.40
2022-12-04T11:08:44.646Z,3.38
2022-12-04T11:11:13.011Z,4.00
2022-12-04T11:13:39.578Z,3.63
2022-12-04T11:16:08.999Z,4.18
2022-12-04T11:18:45.784Z,4.38
2022-12-04T11:21:22.895Z,3.40
2022-12-04T11:23:50.489Z,5.35
2022-12-04T11:26:18.312Z,4.95
2022-12-04T11:28:54.012Z,5.30
2022-12-04T11:31:21.992Z,5.15
2022-12-04T11:33:51.689Z,3.97
2022-12-04T11:36:20.916Z,3.58
2022-12-04T11:38:47.379Z,2.65
2022-12-04T11:41:24.713Z,4.03
2022-12-04T11:43:55.228Z,2.65
2022-12-04T11:46:25.932Z,3.92
2022-12-04T11:48:52.441Z,4.35
2022-12-04T11:51:37.428Z,2.50
2022-12-04T11:54:17.515Z,2.80
2022-12-04T11:57:04.177Z,4.35
2022-12-04T11:59:41.502Z,4.82
2022-12-04T12:02:26.842Z,2.67
2022-12-04T12:05:11.293Z,3.47
2022-12-04T12:07:46.341Z,2.60
2022-12-04T12:10:17.255Z,3.03
2022-12-04T12:12:46.491Z,2.80
2022-12-04T12:15:42.173Z,3.00
2022-12-04T12:18:22.247Z,2.78
2022-12-04T12:20:56.677Z,3.55
2022-12-04T12:23:31.449Z,3.00
2022-12-04T12:26:04.120Z,2.40
2022-12-04T12:29:00.712Z,1.83
2022-12-04T12:31:40.721Z,1.45
2022-12-04T12:34:14.523Z,2.20
2022-12-04T12:36:44.087Z,2.40
2022-12-04T12:39:20.066Z,2.72
2022-12-04T12:41:53.827Z,4.18
2022-12-04T12:44:24.016Z,2.50
2022-12-04T12:46:52.104Z,3.50
2022-12-04T12:49:22.762Z,3.22
2022-12-04T12:51:58.538Z,3.65
2022-12-04T12:54:43.116Z,4.78
2022-12-04T12:57:18.650Z,4.18
2022-12-04T12:59:50.675Z,3.15
2022-12-04T13:04:44.348Z,3.58
2022-12-04T13:07:16.721Z,3.67
2022-12-04T13:09:48.104Z,4.13
2022-12-04T13:12:15.758Z,2.83
2022-12-04T13:14:47.420Z,3.70
2022-12-04T13:17:35.561Z,2.97
2022-12-04T13:20:09.654Z,2.90
2022-12-04T13:22:48.349Z,3.03
2022-12-04T13:25:38.046Z,2.03
2022-12-04T13:28:23.431Z,1.67
2022-12-04T13:30:59.399Z,1.48
2022-12-04T13:33:44.671Z,2.83
2022-12-04T13:36:22.559Z,2.88
2022-12-04T13:39:07.648Z,3.50
2022-12-04T13:41:36.321Z,3.08
2022-12-04T13:44:07.054Z,2.00
2022-12-04T13:46:39.282Z,1.60
2022-12-04T13:51:39.435Z,1.83
2022-12-04T13:54:11.626Z,1.90
2022-12-04T13:56:42.155Z,1.52
2022-12-04T13:59:20.712Z,1.98
2022-12-04T14:01:49.763Z,3.00
2022-12-04T14:04:34.837Z,2.72
2022-12-04T14:07:04.211Z,2.70
2022-12-04T14:09:47.976Z,2.17
2022-12-04T14:12:15.883Z,2.42
2022-12-04T14:14:43.887Z,1.95
2022-12-04T14:17:30.729Z,3.05
2022-12-04T14:20:07.261Z,2.50
2022-12-04T14:22:34.687Z,1.80
2022-12-04T14:25:13.306Z,2.20
2022-12-04T14:27:42.802Z,1.70
2022-12-04T14:30:20.047Z,1.92
2022-12-04T14:32:47.680Z,3.45
2022-12-04T14:35:16.168Z,2.83
2022-12-04T14:37:48.004Z,3.70
2022-12-04T14:40:20.949Z,2.72
2022-12-04T14:42:48.409Z,3.65
2022-12-04T14:45:20.871Z,4.35
2022-12-04T14:48:05.899Z,3.33
2022-12-04T14:50:39.316Z,3.00
2022-12-04T14:53:24.050Z,3.13
2022-12-04T14:56:03.362Z,3.38
2022-12-04T14:58:35.944Z,2.40
2022-12-04T15:01:03.785Z,2.83
2022-12-04T15:03:31.390Z,2.92
2022-12-04T15:06:21.105Z,2.20
2022-12-04T15:09:16.696Z,1.83
2022-12-04T15:12:09.478Z,2.05
2022-12-04T15:14:48.874Z,2.45
2022-12-04T15:17:16.240Z,2.63
2022-12-04T15:19:42.757Z,2.03
2022-12-04T15:22:21.378Z,2.28
2022-12-04T15:24:47.787Z,3.00
2022-12-04T15:27:15.289Z,2.80
2022-12-04T15:29:48.350Z,3.20
2022-12-04T15:32:16.136Z,2.90
2022-12-04T15:34:47.594Z,3.67
2022-12-04T15:37:18.759Z,3.38
2022-12-04T15:39:45.180Z,3.00
2022-12-04T15:42:19.069Z,3.15
2022-12-04T15:45:04.120Z,2.55
2022-12-04T15:47:37.453Z,1.98
2022-12-04T15:50:11.381Z,3.97
2022-12-04T15:52:37.855Z,4.90
2022-12-04T15:55:08.271Z,4.30
2022-12-04T15:57:36.909Z,4.95
2022-12-04T16:00:05.330Z,5.15
2022-12-04T16:02:33.048Z,2.90
2022-12-04T16:05:10.114Z,3.50
2022-12-04T16:07:36.453Z,4.15
2022-12-04T16:10:04.286Z,4.78
2022-12-04T16:12:31.899Z,4.43
2022-12-04T16:14:58.682Z,3.97
2022-12-04T16:17:29.429Z,3.20
2022-12-04T16:19:56.188Z,2.90
2022-12-04T16:22:23.740Z,3.63
2022-12-04T16:24:50.383Z,3.65
2022-12-04T16:27:20.041Z,3.60
2022-12-04T16:29:46.671Z,3.72
2022-12-04T16:32:14.037Z,4.40
2022-12-04T16:34:40.459Z,3.63
2022-12-04T16:37:13.948Z,3.17
2022-12-04T16:39:41.634Z,2.83
2022-12-04T16:42:15.460Z,3.10
2022-12-04T16:44:41.872Z,3.35
2022-12-04T16:47:09.620Z,2.50
2022-12-04T16:49:36.889Z,3.17
2022-12-04T16:52:03.293Z,3.65
2022-12-04T16:54:29.579Z,3.03
2022-12-04T16:56:55.975Z,3.80
2022-12-04T16:59:22.290Z,2.40
2022-12-04T17:01:49.364Z,2.00
2022-12-04T17:04:16.267Z,3.65
2022-12-04T17:06:43.251Z,2.42
2022-12-04T17:09:10.019Z,3.15
2022-12-04T17:11:36.404Z,2.72
2022-12-04T17:14:06.974Z,4.97
2022-12-04T17:16:37.698Z,3.28
2022-12-04T17:19:04.508Z,2.55
2022-12-04T17:21:30.834Z,2.75
2022-12-04T17:23:57.204Z,3.13
2022-12-04T17:26:23.539Z,4.43
2022-12-04T17:28:50.644Z,3.63
2022-12-04T17:31:18.461Z,3.20
2022-12-04T17:33:45.434Z,3.78
2022-12-04T17:36:13.917Z,3.03
2022-12-04T17:38:43.757Z,4.47
2022-12-04T17:41:13.609Z,4.07
2022-12-04T17:43:40.489Z,4.32
2022-12-04T17:46:10.940Z,2.05
2022-12-04T17:48:37.396Z,5.65
2022-12-04T17:51:05.159Z,4.43
2022-12-04T17:53:31.629Z,4.03
2022-12-04T17:56:01.920Z,4.47
2022-12-04T17:58:29.285Z,4.47
2022-12-04T18:00:56.429Z,3.92
2022-12-04T18:03:22.801Z,4.70
2022-12-04T18:05:49.135Z,3.72
2022-12-04T18:08:15.501Z,3.80
2022-12-04T18:10:41.931Z,4.25
2022-12-04T18:13:08.210Z,3.13
2022-12-04T18:15:34.875Z,3.10
2022-12-04T18:18:01.147Z,4.30
2022-12-04T18:20:27.480Z,3.72
2022-12-04T18:22:53.804Z,2.80
2022-12-04T18:25:20.190Z,2.78
2022-12-04T18:27:46.528Z,3.17
2022-12-04T18:30:13.466Z,4.15
2022-12-04T18:32:39.876Z,3.97
2022-12-04T18:35:06.303Z,2.85
2022-12-04T18:37:34.163Z,2.85
2022-12-04T18:40:06.069Z,1.95
2022-12-04T18:42:33.009Z,2.25
2022-12-04T18:44:59.410Z,2.08
2022-12-04T18:47:26.844Z,2.10
2022-12-04T18:49:53.281Z,2.00
2022-12-04T18:52:19.806Z,3.72
2022-12-04T18:54:46.165Z,2.60
2022-12-04T18:57:12.617Z,3.00
2022-12-04T18:59:39.373Z,2.08
2022-12-04T19:02:05.740Z,3.08
2022-12-04T19:04:32.634Z,4.38
2022-12-04T19:06:59.065Z,5.10
2022-12-04T19:10:09.985Z,3.70
2022-12-04T19:12:12.961Z,3.95
2022-12-04T19:14:39.849Z,5.18
2022-12-04T19:17:06.252Z,3.78
2022-12-04T19:19:32.828Z,3.40
2022-12-04T19:22:01.020Z,3.58
2022-12-04T19:24:27.326Z,3.00
2022-12-04T19:26:54.146Z,3.13
2022-12-04T19:29:20.576Z,2.30
2022-12-04T19:31:47.148Z,2.50
2022-12-04T19:34:13.676Z,2.22
2022-12-04T19:36:41.107Z,1.80
2022-12-04T19:39:07.493Z,1.80
2022-12-04T19:41:37.030Z,1.77
2022-12-04T19:44:19.971Z,1.27
2022-12-04T19:46:50.333Z,1.35
2022-12-04T19:49:16.692Z,0.98
2022-12-04T19:51:43.052Z,1.15
2022-12-04T19:54:11.168Z,0.90
2022-12-04T19:56:37.451Z,0.80
2022-12-04T19:59:06.058Z,1.10
2022-12-04T20:01:33.438Z,0.93
2022-12-04T20:04:02.572Z,2.60
2022-12-04T20:06:29.611Z,2.03
2022-12-04T20:08:56.887Z,2.72
2022-12-04T20:11:23.838Z,4.63
2022-12-04T20:13:53.919Z,4.05
2022-12-04T20:16:20.743Z,3.80
2022-12-04T20:18:47.194Z,3.10
2022-12-04T20:21:13.930Z,3.75
2022-12-04T20:23:41.644Z,3.17
2022-12-04T20:26:09.496Z,2.80
2022-12-04T20:28:36.526Z,2.08
2022-12-04T20:31:15.932Z,1.38
2022-12-04T20:33:43.061Z,1.33
2022-12-04T20:36:10.393Z,0.77
2022-12-04T20:38:37.186Z,0.77
2022-12-04T20:41:04.623Z,1.85
2022-12-04T20:43:31.275Z,1.00
2022-12-04T20:45:57.754Z,1.60
2022-12-04T20:48:24.435Z,1.20
2022-12-04T20:50:50.811Z,1.13
2022-12-04T20:53:17.382Z,1.85
2022-12-04T20:55:52.015Z,1.60
2022-12-04T20:58:18.462Z,1.55
2022-12-04T21:00:44.742Z,0.90
2022-12-04T21:03:11.031Z,0.73
2022-12-04T21:05:37.407Z,0.70
2022-12-04T21:08:03.952Z,0.88
2022-12-04T21:10:30.282Z,1.50
2022-12-04T21:13:15.360Z,1.15
2022-12-04T21:16:00.553Z,1.23
2022-12-04T21:18:26.921Z,1.65
2022-12-04T21:20:53.220Z,1.88
2022-12-04T21:23:19.579Z,1.33
2022-12-04T21:25:45.982Z,0.80
2022-12-04T21:28:12.568Z,0.90
2022-12-04T21:30:38.863Z,0.63
2022-12-04T21:33:05.169Z,0.60
2022-12-04T21:35:31.479Z,1.10
2022-12-04T21:37:57.780Z,1.08
2022-12-04T21:40:24.347Z,0.85
2022-12-04T21:42:50.701Z,0.70
2022-12-04T21:45:17.023Z,1.45
2022-12-04T21:47:43.686Z,1.08
2022-12-04T21:50:10.080Z,2.47
2022-12-04T21:52:36.612Z,1.88
2022-12-04T21:55:03.006Z,1.17
2022-12-04T21:57:29.444Z,1.08
2022-12-04T21:59:56.191Z,0.55
2022-12-04T22:02:22.986Z,0.95
2022-12-04T22:04:49.451Z,1.30
2022-12-04T22:07:16.168Z,1.33
2022-12-04T22:09:42.596Z,1.40
2022-12-04T22:14:55.400Z,1.02
2022-12-04T22:17:21.885Z,1.17
2022-12-04T22:19:48.184Z,1.50
2022-12-04T22:22:14.599Z,1.38
2022-12-04T22:24:41.638Z,1.15
2022-12-04T22:27:14.803Z,1.20
2022-12-04T22:29:50.359Z,1.00
2022-12-04T22:32:17.633Z,1.10
2022-12-04T22:34:44.030Z,1.08
2022-12-04T22:37:10.512Z,1.17
2022-12-04T22:39:36.875Z,1.23
2022-12-04T22:42:03.356Z,1.13
2022-12-04T22:44:29.724Z,1.30
2022-12-04T22:46:56.071Z,1.20
2022-12-04T22:49:22.524Z,0.93
2022-12-04T22:51:48.838Z,1.08
2022-12-04T22:54:15.238Z,0.60
2022-12-04T22:56:43.554Z,1.00
2022-12-04T22:59:10.000Z,0.70
2022-12-04T23:01:36.311Z,0.60
2022-12-04T23:04:03.185Z,0.60
2022-12-04T23:06:30.783Z,0.55
2022-12-04T23:08:58.572Z,0.88
2022-12-04T23:11:26.008Z,0.50
2022-12-04T23:14:00.235Z,0.75
2022-12-04T23:16:27.671Z,0.50
2022-12-04T23:18:54.311Z,0.50
2022-12-04T23:21:21.137Z,0.50
2022-12-04T23:23:47.920Z,0.68
2022-12-04T23:26:15.701Z,0.60
2022-12-04T23:28:42.357Z,0.47
2022-12-04T23:31:09.023Z,0.50
2022-12-04T23:33:35.480Z,0.40
2022-12-04T23:36:02.578Z,0.50
2022-12-04T23:38:29.754Z,0.40
2022-12-04T23:41:05.138Z,0.40
2022-12-04T23:43:31.684Z,0.50
2022-12-04T23:45:58.207Z,0.40
2022-12-04T23:48:25.072Z,0.50
2022-12-04T23:50:51.505Z,0.50
2022-12-04T23:53:18.118Z,0.40
2022-12-04T23:55:44.469Z,0.60
2022-12-04T23:58:10.888Z,0.60
